Dades meteomassalio
Diari Summary for Abril 30, 2017 Units:  Metric    English   Both
« Previous Day
Next Day »
Diari Semanal Mensual Anual Personalitzat
  Maxima: Minima: Mijana:
Temperatura: -17.8 °C -13.7 °C -9.9 °C
Rosada: -17.8 °C -14.8 °C -13.5 °C
Humitat: Humidity % 32 % 70 %
Velocitat del vent: 0 km/h 0 km/h 16.6 km/h
Racha vent: 0 km/h - -
Vent:- - WSW
Pressio: 0 hPa 34063.2 hPa -
Pluja: 38.1 mm    
Historical Graphs
 
 
Tabular Data for Abril 30, 2017
Time Temperature Dew Point Pressure Wind Wind Speed Wind Gust Humidity Rainfall Rate (Hourly) solar Conditions
-17.8 °C -17.8 °C 0 hPa Calm     Humidity % 0 mm SolarRadiationWatts/m^2 W/m2 Conditions
00:00 -12.6 °C -13.7 °C 34303.6 hPa Calm     87 % 0 mm 0.0 W/m2 RA
00:05 -12.6 °C -13.7 °C 34303.6 hPa Calm     88 % 0 mm 0.0 W/m2 CLR
00:10 -12.6 °C -13.6 °C 34303.6 hPa Calm     88 % 0 mm 0.0 W/m2 CLR
00:15 -12.5 °C -13.6 °C 34303.6 hPa Calm     88 % 0 mm 0.0 W/m2 CLR
00:20 -12.4 °C -13.4 °C 34303.6 hPa Calm     88 % 0 mm 0.0 W/m2 CLR
00:25 -12.3 °C -13.5 °C 34303.6 hPa SE 9 km/h   87 % 0 mm 0.0 W/m2 CLR
00:30 -12.3 °C -13.4 °C 34303.6 hPa Calm     87 % 0 mm 0.0 W/m2 CLR
00:35 -12.3 °C -13.4 °C 34293.4 hPa Calm     87 % 0 mm 0.0 W/m2 CLR
00:40 -12.3 °C -13.4 °C 34293.4 hPa Calm     87 % 0 mm 0.0 W/m2 CLR
00:45 -12.3 °C -13.4 °C 34293.4 hPa Calm     87 % 0 mm 0.0 W/m2 CLR
00:50 -12.3 °C -13.4 °C 34293.4 hPa Calm     87 % 0 mm 0.0 W/m2 CLR
00:55 -12.2 °C -13.4 °C 34293.4 hPa Calm     87 % 0 mm 0.0 W/m2 CLR
01:00 -12.3 °C -13.4 °C 34293.4 hPa Calm     87 % 0 mm 0.0 W/m2 CLR
01:05 -12.3 °C -13.4 °C 34293.4 hPa Calm     88 % 0 mm 0.0 W/m2 CLR
01:10 -12.3 °C -13.4 °C 34303.6 hPa WSW 2.6 km/h   88 % 0 mm 0.0 W/m2 CLR
01:15 -12.3 °C -13.4 °C 34293.4 hPa Calm     87 % 0 mm 0.0 W/m2 CLR
01:20 -12.4 °C -13.5 °C 34293.4 hPa Calm     87 % 0 mm 0.0 W/m2 CLR
01:25 -12.5 °C -13.7 °C 34293.4 hPa Calm     87 % 0 mm 0.0 W/m2 CLR
01:30 -12.6 °C -13.7 °C 34293.4 hPa East 6 km/h 6 km/h 88 % 0 mm 0.0 W/m2 CLR
01:35 -12.7 °C -13.7 °C 34293.4 hPa ESE 10.3 km/h 10.3 km/h 89 % 0 mm 0.0 W/m2 CLR
01:40 -12.7 °C -13.7 °C 34293.4 hPa East 9 km/h 9 km/h 89 % 0 mm 0.0 W/m2 CLR
01:45 -12.6 °C -13.6 °C 34293.4 hPa ESE 9 km/h 9 km/h 89 % 0 mm 0.0 W/m2 CLR
01:50 -12.5 °C -13.4 °C 34293.4 hPa ESE 11.9 km/h 11.9 km/h 89 % 0 mm 0.0 W/m2 CLR
01:55 -12.4 °C -13.4 °C 34279.9 hPa ESE 9 km/h 9 km/h 88 % 0 mm 0.0 W/m2 CLR
02:00 -12.4 °C -13.5 °C 34279.9 hPa ESE 9 km/h 9 km/h 88 % 0 mm 0.0 W/m2 CLR
02:05 -12.5 °C -13.6 °C 34279.9 hPa Calm     88 % 0 mm 0.0 W/m2 CLR
02:10 -12.6 °C -13.6 °C 34279.9 hPa Calm     88 % 0 mm 0.0 W/m2 CLR
02:15 -12.5 °C -13.6 °C 34279.9 hPa Calm     88 % 0 mm 0.0 W/m2 CLR
02:20 -12.4 °C -13.4 °C 34269.7 hPa SE 10.3 km/h 10.3 km/h 88 % 0 mm 0.0 W/m2 CLR
02:25 -12.3 °C -13.4 °C 34279.9 hPa Calm     87 % 0 mm 0.0 W/m2 CLR
02:30 -12.3 °C -13.4 °C 34269.7 hPa Calm     87 % 0 mm 0.0 W/m2 CLR
02:35 -12.3 °C -13.4 °C 34269.7 hPa Calm     87 % 0 mm 0.0 W/m2 CLR
02:40 -12.3 °C -13.4 °C 34269.7 hPa Calm     87 % 0 mm 0.0 W/m2 CLR
02:45 -12.4 °C -13.5 °C 34269.7 hPa Calm     87 % 0 mm 0.0 W/m2 CLR
02:50 -12.4 °C -13.6 °C 34269.7 hPa Calm     87 % 0 mm 0.0 W/m2 CLR
02:55 -12.6 °C -13.7 °C 34269.7 hPa Calm     88 % 0 mm 0.0 W/m2 CLR
03:00 -12.7 °C -13.7 °C 34269.7 hPa Calm     88 % 0 mm 0.0 W/m2 CLR
03:05 -12.8 °C -13.8 °C 34269.7 hPa Calm     88 % 0 mm 0.0 W/m2 CLR
03:10 -12.8 °C -13.8 °C 34269.7 hPa Calm     89 % 0 mm 0.0 W/m2 CLR
03:16 -12.9 °C -13.8 °C 34256.2 hPa Calm     89 % 0 mm 0.0 W/m2 CLR
03:21 -12.9 °C -13.8 °C 34256.2 hPa Calm     89 % 0 mm 0.0 W/m2 CLR
03:26 -13 °C -13.9 °C 34256.2 hPa Calm     89 % 0 mm 0.0 W/m2 CLR
03:31 -13.2 °C -14.1 °C 34256.2 hPa Calm     89 % 0 mm 0.0 W/m2 CLR
03:36 -13.1 °C -13.8 °C 34256.2 hPa Calm     91 % 0 mm 0.0 W/m2 CLR
03:41 -13.1 °C -13.9 °C 34256.2 hPa Calm     90 % 0 mm 0.0 W/m2 CLR
03:46 -13.2 °C -14.1 °C 34256.2 hPa Calm     90 % 0 mm 0.0 W/m2 CLR
03:51 -13.2 °C -14.1 °C 34256.2 hPa Calm     90 % 0 mm 0.0 W/m2 CLR
03:56 -13.3 °C -14.2 °C 34256.2 hPa Calm     90 % 0 mm 0.0 W/m2 CLR
04:01 -13.3 °C -14.2 °C 34256.2 hPa Calm     90 % 0 mm 0.0 W/m2 CLR
04:06 -13.4 °C -14.3 °C 34256.2 hPa Calm     90 % 0 mm 0.0 W/m2 CLR
04:11 -13.5 °C -14.3 °C 34256.2 hPa Calm     91 % 0 mm 0.0 W/m2 CLR
04:16 -13.5 °C -14.3 °C 34256.2 hPa Calm     91 % 0 mm 0.0 W/m2 CLR
04:21 -13.6 °C -14.3 °C 34256.2 hPa Calm     91 % 0 mm 0.0 W/m2 CLR
04:26 -13.6 °C -14.3 °C 34256.2 hPa Calm     91 % 0 mm 0.0 W/m2 CLR
04:31 -13.5 °C -14.2 °C 34256.2 hPa Calm     92 % 0 mm 0.0 W/m2 CLR
04:36 -13.5 °C -14.2 °C 34256.2 hPa Calm     92 % 0 mm 0.0 W/m2 CLR
04:41 -13.5 °C -14.3 °C 34256.2 hPa Calm     91 % 0 mm 0.0 W/m2 CLR
04:46 -13.6 °C -14.2 °C 34256.2 hPa Calm     92 % 0 mm 0.0 W/m2 CLR
04:51 -13.6 °C -14.2 °C 34256.2 hPa Calm     92 % 0 mm 0.0 W/m2 CLR
04:56 -13.5 °C -14.2 °C 34256.2 hPa Calm     92 % 0 mm 0.0 W/m2 CLR
05:01 -13.4 °C -14.1 °C 34256.2 hPa Calm     92 % 0 mm 0.0 W/m2 CLR
05:06 -13.4 °C -14.1 °C 34256.2 hPa Calm     92 % 0 mm 0.0 W/m2 CLR
05:11 -13.4 °C -14.1 °C 34256.2 hPa Calm     92 % 0 mm 0.0 W/m2 CLR
05:16 -13.4 °C -14.1 °C 34256.2 hPa Calm     92 % 0 mm 0.0 W/m2 CLR
05:21 -13.3 °C -14 °C 34256.2 hPa Calm     92 % 0 mm 0.0 W/m2 CLR
05:26 -13.2 °C -13.9 °C 34256.2 hPa Calm     92 % 0 mm 0.0 W/m2 CLR
05:31 -13.1 °C -13.8 °C 34246 hPa Calm     92 % 0 mm 0.0 W/m2 CLR
05:36 -13.1 °C -13.8 °C 34256.2 hPa Calm     92 % 0 mm 0.0 W/m2 CLR
05:41 -13.1 °C -13.7 °C 34256.2 hPa Calm     92 % 0 mm 0.0 W/m2 CLR
05:46 -13.1 °C -13.8 °C 34246 hPa Calm     92 % 0 mm 0.0 W/m2 CLR
05:51 -13.1 °C -13.9 °C 34246 hPa Calm     91 % 0 mm 0.0 W/m2 CLR
05:56 -13.1 °C -13.9 °C 34256.2 hPa Calm     91 % 0 mm 0.0 W/m2 CLR
06:01 -13.1 °C -13.8 °C 34256.2 hPa Calm     92 % 0 mm 0.0 W/m2 CLR
06:06 -13.2 °C -13.9 °C 34256.2 hPa Calm     91 % 0 mm 0.0 W/m2 CLR
06:11 -13.2 °C -13.8 °C 34246 hPa Calm     92 % 0 mm 0.0 W/m2 CLR
06:17 -13.2 °C -14 °C 34246 hPa Calm     91 % 0 mm 0.0 W/m2 CLR
06:22 -13.3 °C -14.1 °C 34256.2 hPa Calm     91 % 0 mm 0.0 W/m2 CLR
06:27 -13.3 °C -14 °C 34246 hPa Calm     92 % 0 mm 0.0 W/m2 CLR
06:32 -13.4 °C -14.1 °C 34256.2 hPa Calm     91 % 0 mm 0.0 W/m2 CLR
06:37 -13.4 °C -14.2 °C 34256.2 hPa Calm     91 % 0 mm 0.0 W/m2 CLR
06:42 -13.4 °C -14.2 °C 34246 hPa Calm     91 % 0 mm 0.0 W/m2 CLR
06:47 -13.4 °C -14.1 °C 34246 hPa Calm     92 % 0 mm 0.0 W/m2 CLR
06:52 -13.5 °C -14.2 °C 34246 hPa Calm     92 % 0 mm 0.0 W/m2 OVC
06:57 -13.5 °C -14.2 °C 34246 hPa Calm     92 % 0 mm 5.0 W/m2 OVC
07:02 -13.5 °C -14.2 °C 34246 hPa Calm     92 % 0 mm 5.0 W/m2 OVC
07:07 -13.5 °C -14.2 °C 34246 hPa Calm     92 % 0 mm 12.0 W/m2 BKN
07:12 -13.6 °C -14.3 °C 34256.2 hPa Calm     92 % 0 mm 19.0 W/m2 BKN
07:17 -13.7 °C -14.4 °C 34256.2 hPa Calm     91 % 0 mm 30.0 W/m2 BKN
07:22 -13.6 °C -14.3 °C 34256.2 hPa Calm     92 % 0 mm 30.0 W/m2 BKN
07:27 -13.6 °C -14.3 °C 34256.2 hPa Calm     92 % 0 mm 44.0 W/m2 BKN
07:32 -13.6 °C -14.3 °C 34256.2 hPa Calm     92 % 0 mm 54.0 W/m2 SCT
07:37 -13.5 °C -14.2 °C 34256.2 hPa Calm     92 % 0 mm 49.0 W/m2 SCT
07:42 -13.4 °C -14.1 °C 34256.2 hPa Calm     92 % 0 mm 51.0 W/m2 SCT
07:47 -13.3 °C -13.9 °C 34256.2 hPa Calm     92 % 0 mm 56.0 W/m2 SCT
07:52 -13.2 °C -13.9 °C 34256.2 hPa Calm     92 % 0 mm 86.0 W/m2 FEW
07:57 -13.2 °C -13.8 °C 34246 hPa Calm     92 % 0 mm 97.0 W/m2 CLR
08:02 -13.1 °C -13.7 °C 34246 hPa Calm     92 % 0 mm 93.0 W/m2 CLR
08:07 -12.9 °C -13.6 °C 34256.2 hPa Calm     92 % 0 mm 86.0 W/m2 CLR
08:12 -12.8 °C -13.5 °C 34246 hPa Calm     92 % 0 mm 91.0 W/m2 CLR
08:17 -12.7 °C -13.4 °C 34246 hPa Calm     92 % 0 mm 98.0 W/m2 CLR
08:22 -12.6 °C -13.3 °C 34246 hPa Calm     92 % 0 mm 100.0 W/m2 CLR
08:27 -12.5 °C -13.2 °C 34246 hPa Calm     92 % 0 mm 109.0 W/m2 CLR
08:32 -12.3 °C -13 °C 34246 hPa Calm     92 % 0 mm 118.0 W/m2 CLR
08:37 -12.2 °C -12.9 °C 34246 hPa Calm     91 % 0 mm 132.0 W/m2 CLR
08:42 -12.1 °C -12.8 °C 34246 hPa Calm     91 % 0 mm 144.0 W/m2 CLR
08:47 -11.9 °C -12.8 °C 34235.8 hPa Calm     90 % 0 mm 155.0 W/m2 CLR
08:52 -11.8 °C -12.8 °C 34246 hPa Calm     89 % 0 mm 165.0 W/m2 CLR
08:57 -11.8 °C -12.7 °C 34235.8 hPa Calm     89 % 0 mm 178.0 W/m2 CLR
09:02 -11.7 °C -12.6 °C 34235.8 hPa Calm     89 % 0 mm 193.0 W/m2 CLR
09:07 -11.6 °C -12.5 °C 34235.8 hPa Calm     89 % 0 mm 206.0 W/m2 CLR
09:12 -11.5 °C -12.6 °C 34235.8 hPa Calm     88 % 0 mm 200.0 W/m2 CLR
09:17 -11.3 °C -12.4 °C 34235.8 hPa Calm     88 % 0 mm 193.0 W/m2 CLR
09:22 -11.2 °C -12.3 °C 34222.3 hPa Calm     88 % 0 mm 186.0 W/m2 CLR
09:27 -11.1 °C -12.3 °C 34222.3 hPa Calm     87 % 0 mm 178.0 W/m2 CLR
09:32 -11 °C -12.3 °C 34222.3 hPa Calm     86 % 0 mm 206.0 W/m2 CLR
09:37 -10.9 °C -12.1 °C 34222.3 hPa Calm     86 % 0 mm 274.0 W/m2 CLR
09:42 -10.7 °C -12.1 °C 34222.3 hPa Calm     85 % 0 mm 366.0 W/m2 CLR
09:47 -10.4 °C -11.8 °C 34222.3 hPa Calm     85 % 0 mm 420.0 W/m2 CLR
09:52 -10.2 °C -11.8 °C 34212.1 hPa Calm     83 % 0 mm 302.0 W/m2 CLR
09:57 -10 °C -11.8 °C 34222.3 hPa Calm     81 % 0 mm 297.0 W/m2 CLR
10:02 -9.8 °C -11.8 °C 34212.1 hPa Calm     79 % 0 mm 332.0 W/m2 CLR
10:07 -9.7 °C -11.8 °C 34212.1 hPa Calm     78 % 0 mm 413.0 W/m2 CLR
10:12 -9.4 °C -11.7 °C 34212.1 hPa Calm     77 % 0 mm 473.0 W/m2 CLR
10:17 -9.2 °C -11.6 °C 34212.1 hPa Calm     75 % 0 mm 496.0 W/m2 CLR
10:22 -9 °C -11.6 °C 34212.1 hPa Calm     74 % 0 mm 571.0 W/m2 CLR
10:27 -8.7 °C -11.6 °C 34212.1 hPa Calm     72 % 0 mm 603.0 W/m2 CLR
10:32 -8.4 °C -11.6 °C 34212.1 hPa Calm     69 % 0 mm 563.0 W/m2 CLR
10:37 -8.2 °C -11.6 °C 34198.6 hPa ESE 10.3 km/h 10.3 km/h 67 % 0 mm 659.0 W/m2 CLR
10:42 -8.1 °C -11.9 °C 34198.6 hPa SE 12.9 km/h 12.9 km/h 64 % 0 mm 635.0 W/m2 CLR
10:47 -8 °C -11.8 °C 34198.6 hPa SE 17.9 km/h 17.9 km/h 64 % 0 mm 649.0 W/m2 CLR
10:52 -7.8 °C -11.8 °C 34198.6 hPa East 7.7 km/h   63 % 0 mm 573.0 W/m2 CLR
10:57 -7.6 °C -12.3 °C 34188.4 hPa SSE 17.9 km/h 17.9 km/h 58 % 0 mm 687.0 W/m2 CLR
11:02 -7.5 °C -12.2 °C 34188.4 hPa East 11.9 km/h 11.9 km/h 58 % 0 mm 675.0 W/m2 CLR
11:07 -7.3 °C -12.3 °C 34188.4 hPa ESE 15 km/h 15 km/h 56 % 0 mm 696.0 W/m2 CLR
11:12 -7.1 °C -12.3 °C 34188.4 hPa ENE 11.9 km/h 11.9 km/h 55 % 0 mm 724.0 W/m2 CLR
11:17 -6.9 °C -12.2 °C 34178.3 hPa SE 18.2 km/h 18.2 km/h 54 % 0 mm 742.0 W/m2 CLR
11:22 -6.8 °C -12.4 °C 34178.3 hPa SSE 15 km/h 15 km/h 52 % 0 mm 737.0 W/m2 CLR
11:27 -6.7 °C -12.6 °C 34178.3 hPa NE 15 km/h 15 km/h 50 % 0 mm 807.0 W/m2 CLR
11:33 -6.6 °C -12.6 °C 34178.3 hPa East 10.3 km/h 10.3 km/h 50 % 0 mm 824.0 W/m2 CLR
11:38 -6.5 °C -12.7 °C 34164.7 hPa South 12.9 km/h 12.9 km/h 49 % 0 mm 816.0 W/m2 CLR
11:43 -6.3 °C -12.7 °C 34164.7 hPa SSE 6 km/h   48 % 0 mm 821.0 W/m2 CLR
11:48 -6.3 °C -12.9 °C 34164.7 hPa ESE 15 km/h 15 km/h 46 % 0 mm 937.0 W/m2 CLR
11:53 -6.1 °C -13.4 °C 34164.7 hPa WNW 23.8 km/h 23.8 km/h 43 % 0 mm 926.0 W/m2 CLR
11:58 -6.1 °C -13.3 °C 34164.7 hPa NW 26.9 km/h 26.9 km/h 43 % 0 mm 397.0 W/m2 CLR
12:03 -6.1 °C -13.1 °C 34164.7 hPa NW 9 km/h 9 km/h 44 % 0 mm 833.0 W/m2 CLR
12:08 -6 °C -13.3 °C 34154.6 hPa West 35.7 km/h 35.7 km/h 43 % 0 mm 413.0 W/m2 CLR
12:13 -6.1 °C -13.5 °C 34154.6 hPa WSW 23.8 km/h 23.8 km/h 42 % 0 mm 381.0 W/m2 CLR
12:18 -6.2 °C -13.3 °C 34154.6 hPa NW 17.9 km/h 17.9 km/h 44 % 0 mm 236.0 W/m2 CLR
12:23 -6.3 °C -13.2 °C 34154.6 hPa WNW 12.9 km/h 12.9 km/h 45 % 0 mm 142.0 W/m2 CLR
12:28 -6.4 °C -13.5 °C 34154.6 hPa West 20.9 km/h 20.9 km/h 44 % 0 mm 162.0 W/m2 CLR
12:33 -6.6 °C -13.8 °C 34154.6 hPa West 17.9 km/h 17.9 km/h 43 % 0 mm 239.0 W/m2 CLR
12:38 -6.6 °C -13.8 °C 34154.6 hPa West 9 km/h 9 km/h 43 % 0 mm 272.0 W/m2 CLR
12:43 -6.5 °C -13.5 °C 34154.6 hPa West 15 km/h 15 km/h 44 % 0 mm 376.0 W/m2 CLR
12:48 -6.4 °C -13.6 °C 34144.4 hPa Calm   4.3 km/h 43 % 0 mm 404.0 W/m2 CLR
12:53 -6.2 °C -13 °C 34144.4 hPa Calm     45 % 0 mm 540.0 W/m2 CLR
12:58 -5.8 °C -13.3 °C 34130.9 hPa Calm     42 % 0 mm 543.0 W/m2 CLR
13:03 -5.7 °C -13.7 °C 34130.9 hPa Calm     39 % 0 mm 584.0 W/m2 CLR
13:08 -5.6 °C -13.7 °C 34130.9 hPa Calm   0.3 km/h 39 % 0 mm 589.0 W/m2 CLR
13:13 -5.5 °C -14.1 °C 34130.9 hPa WSW 23.8 km/h 23.8 km/h 37 % 0 mm 612.0 W/m2 CLR
13:18 -5.6 °C -14.1 °C 34120.7 hPa SW 18.2 km/h 18.2 km/h 37 % 0 mm 707.0 W/m2 CLR
13:23 -5.4 °C -14 °C 34120.7 hPa SSW 15 km/h 15 km/h 37 % 0 mm 515.0 W/m2 CLR
13:28 -5.4 °C -14.2 °C 34120.7 hPa WNW 38.8 km/h 38.8 km/h 36 % 0 mm 508.0 W/m2 CLR
13:33 -5.6 °C -14.1 °C 34120.7 hPa West 26.9 km/h 26.9 km/h 37 % 0 mm 473.0 W/m2 CLR
13:39 -5.6 °C -14.4 °C 34120.7 hPa West 35.7 km/h 35.7 km/h 36 % 0 mm 439.0 W/m2 CLR
13:43 -5.6 °C -14.4 °C 34120.7 hPa West 20.9 km/h 20.9 km/h 36 % 0 mm 654.0 W/m2 CLR
13:48 -5.6 °C -14.3 °C 34107.2 hPa WSW 23.3 km/h 23.3 km/h 36 % 0 mm 568.0 W/m2 CLR
13:54 -5.5 °C -14.7 °C 34107.2 hPa SSW 29.8 km/h 29.8 km/h 34 % 0 mm 517.0 W/m2 CLR
13:59 -5.6 °C -14.8 °C 34107.2 hPa WSW 38.8 km/h 38.8 km/h 34 % 0 mm 592.0 W/m2 CLR
14:04 -5.6 °C -14.4 °C 34107.2 hPa WSW 29.8 km/h 29.8 km/h 36 % 0 mm 700.0 W/m2 CLR
14:09 -5.6 °C -14.6 °C 34107.2 hPa WSW 17.9 km/h 17.9 km/h 35 % 0 mm 668.0 W/m2 CLR
14:14 -5.3 °C -14.1 °C 34107.2 hPa NW 23.8 km/h 23.8 km/h 36 % 0 mm 905.0 W/m2 CLR
14:19 -5.2 °C -14.2 °C 34107.2 hPa SW 3.1 km/h   35 % 0 mm 802.0 W/m2 CLR
14:24 -4.9 °C -13.8 °C 34107.2 hPa WNW 25.9 km/h 25.9 km/h 36 % 0 mm 940.0 W/m2 CLR
14:29 -5.1 °C -14.3 °C 34107.2 hPa West 29.8 km/h 29.8 km/h 34 % 0 mm 911.0 W/m2 CLR
14:34 -5.1 °C -14.2 °C 34097 hPa West 20.9 km/h 20.9 km/h 35 % 0 mm 775.0 W/m2 CLR
14:39 -5.2 °C -14.7 °C 34107.2 hPa SW 26.9 km/h 26.9 km/h 33 % 0 mm 979.0 W/m2 CLR
14:44 -5.1 °C -14.3 °C 34097 hPa WNW 20.9 km/h 20.9 km/h 34 % 0 mm 847.0 W/m2 CLR
14:49 -5 °C -14.6 °C 34107.2 hPa NW 20.9 km/h 20.9 km/h 33 % 0 mm 710.0 W/m2 CLR
14:54 -4.9 °C -14.7 °C 34107.2 hPa WSW 26.9 km/h 26.9 km/h 32 % 0 mm 923.0 W/m2 CLR
14:59 -5.1 °C -14.6 °C 34107.2 hPa West 11.9 km/h 11.9 km/h 33 % 0 mm 1005.0 W/m2 CLR
15:04 -4.9 °C -14.3 °C 34107.2 hPa WSW 17.9 km/h 17.9 km/h 34 % 0 mm 1049.0 W/m2 CLR
15:09 -4.8 °C -14.3 °C 34107.2 hPa WNW 47.6 km/h 47.6 km/h 33 % 0 mm 691.0 W/m2 CLR
15:14 -5 °C -14.6 °C 34107.2 hPa WNW 44.7 km/h 44.7 km/h 33 % 0 mm 341.0 W/m2 CLR
15:19 -5.3 °C -14.8 °C 34107.2 hPa WNW 23.8 km/h 23.8 km/h 33 % 0 mm 336.0 W/m2 CLR
15:24 -5.4 °C -14.6 °C 34107.2 hPa WNW 50.7 km/h 50.7 km/h 34 % 0 mm 330.0 W/m2 CLR
15:29 -5.6 °C -14.8 °C 34107.2 hPa West 47.6 km/h 47.6 km/h 34 % 0 mm 406.0 W/m2 CLR
15:34 -5.6 °C -14.6 °C 34107.2 hPa West 29.8 km/h 29.8 km/h 35 % 0 mm 371.0 W/m2 CLR
15:39 -5.7 °C -14.6 °C 34097 hPa West 17.9 km/h 17.9 km/h 35 % 0 mm 411.0 W/m2 CLR
15:44 -5.6 °C -14.6 °C 34097 hPa WSW 15 km/h 15 km/h 35 % 0 mm 425.0 W/m2 CLR
15:49 -5.4 °C -14.2 °C 34097 hPa WNW 15.6 km/h 15.6 km/h 36 % 0 mm 483.0 W/m2 CLR
15:54 -5.3 °C -14.3 °C 34097 hPa WNW 15.6 km/h 15.6 km/h 35 % 0 mm 390.0 W/m2 CLR
15:59 -5.4 °C -14.4 °C 34097 hPa WSW 20.9 km/h 20.9 km/h 35 % 0 mm 429.0 W/m2 CLR
16:04 -5.4 °C -14.4 °C 34086.9 hPa SW 47.6 km/h 47.6 km/h 35 % 0 mm 338.0 W/m2 CLR
16:09 -5.4 °C -14.2 °C 34097 hPa West 32.8 km/h 32.8 km/h 36 % 0 mm 350.0 W/m2 CLR
16:14 -5.4 °C -14.2 °C 34097 hPa WNW 33.6 km/h 33.6 km/h 36 % 0 mm 408.0 W/m2 CLR
16:19 -5.4 °C -14.1 °C 34086.9 hPa WNW 9 km/h 9 km/h 36 % 0 mm 570.0 W/m2 CLR
16:24 -5.3 °C -14.1 °C 34086.9 hPa West 11.9 km/h 11.9 km/h 36 % 0 mm 285.0 W/m2 CLR
16:29 -5.2 °C -13.9 °C 34086.9 hPa West 26.9 km/h 26.9 km/h 36 % 0 mm 392.0 W/m2 CLR
16:34 -5.2 °C -14.2 °C 34086.9 hPa WNW 31.1 km/h 31.1 km/h 35 % 0 mm 425.0 W/m2 CLR
16:39 -5 °C -13.8 °C 34086.9 hPa SSW 29.8 km/h 29.8 km/h 36 % 0 mm 853.0 W/m2 CLR
16:44 -5.2 °C -14.4 °C 34086.9 hPa WSW 9 km/h 9 km/h 34 % 0 mm 225.0 W/m2 CLR
16:49 -5.3 °C -14.3 °C 34086.9 hPa SSW 32.8 km/h 32.8 km/h 35 % 0 mm 262.0 W/m2 CLR
16:54 -5.3 °C -14.1 °C 34086.9 hPa WNW 35.7 km/h 35.7 km/h 36 % 0 mm 313.0 W/m2 CLR
16:59 -5.2 °C -14 °C 34073.3 hPa SSW 15 km/h 15 km/h 36 % 0 mm 325.0 W/m2 CLR
17:04 -5.1 °C -14.1 °C 34073.3 hPa West 50.7 km/h 50.7 km/h 35 % 0 mm 483.0 W/m2 CLR
17:09 -5.2 °C -14 °C 34073.3 hPa West 47.6 km/h 47.6 km/h 36 % 0 mm 253.0 W/m2 CLR
17:14 -5.1 °C -13.8 °C 34063.2 hPa WSW 31.1 km/h 31.1 km/h 36 % 0 mm 253.0 W/m2 CLR
17:19 -5.2 °C -13.9 °C 34073.3 hPa WSW 53.6 km/h 53.6 km/h 36 % 0 mm 258.0 W/m2 CLR
17:24 -5.2 °C -14.1 °C 34073.3 hPa WSW 47.6 km/h 47.6 km/h 36 % 0 mm 311.0 W/m2 CLR
17:29 -5.1 °C -14.1 °C 34073.3 hPa West 59.5 km/h 59.5 km/h 35 % 0 mm 232.0 W/m2 CLR
17:34 -5.2 °C -14.4 °C 34063.2 hPa SW 98.3 km/h 98.3 km/h 34 % 0 mm 715.0 W/m2 CLR
17:39 -5.1 °C -14.1 °C 34063.2 hPa West 71.5 km/h 71.5 km/h 35 % 0 mm 619.0 W/m2 CLR
17:44 -5.2 °C -14.3 °C 34063.2 hPa West 74.5 km/h 74.5 km/h 35 % 0 mm 582.0 W/m2 CLR
17:49 -5.6 °C -14.1 °C 34073.3 hPa WSW 50.7 km/h 50.7 km/h 37 % 0 mm 127.0 W/m2 CLR
17:54 -5.7 °C -14.2 °C 34073.3 hPa West 59.5 km/h 59.5 km/h 37 % 0 mm 134.0 W/m2 CLR
17:59 -5.9 °C -14.3 °C 34073.3 hPa WSW 77.4 km/h 77.4 km/h 37 % 0 mm 174.0 W/m2 CLR
18:04 -5.9 °C -14.4 °C 34073.3 hPa West 80.5 km/h 80.5 km/h 37 % 0 mm 262.0 W/m2 CLR
18:09 -6 °C -14.3 °C 34073.3 hPa West 59.5 km/h 59.5 km/h 38 % 0 mm 139.0 W/m2 CLR
18:14 -6.1 °C -14.3 °C 34086.9 hPa WNW 59.5 km/h 59.5 km/h 38 % 0 mm 197.0 W/m2 CLR
18:16 -6 °C -14.3 °C 34086.9 hPa WNW 71.5 km/h 71.5 km/h 38 % 0 mm 197.0 W/m2 CLR
18:21 -6 °C -14.1 °C 34086.9 hPa WNW 56.6 km/h 56.6 km/h 39 % 0 mm 178.0 W/m2 CLR
18:26 -6.1 °C -14.3 °C 34073.3 hPa WSW 74.5 km/h 74.5 km/h 38 % 0 mm 155.0 W/m2 CLR
18:31 -5.9 °C -14 °C 34073.3 hPa SW 56.6 km/h 56.6 km/h 39 % 0 mm 552.0 W/m2 CLR
18:36 -5.9 °C -14 °C 34086.9 hPa WSW 56.6 km/h 56.6 km/h 39 % 0 mm 438.0 W/m2 CLR
18:41 -6.1 °C -14.2 °C 34086.9 hPa WNW 44.7 km/h 44.7 km/h 39 % 0 mm 86.0 W/m2 CLR
18:42 -6.2 °C -14 °C 34086.9 hPa West 50.7 km/h 50.7 km/h 40 % 0 mm 93.0 W/m2 CLR
18:47 -6.3 °C -14.1 °C 34086.9 hPa West 54.4 km/h 54.4 km/h 40 % 0 mm 141.0 W/m2 CLR
18:52 -6.2 °C -13.8 °C 34097 hPa WSW 68.6 km/h 68.6 km/h 41 % 0 mm 420.0 W/m2 CLR
18:57 -7.1 °C -12.9 °C 34097 hPa West 59.5 km/h 59.5 km/h 50 % 0 mm 371.0 W/m2 CLR
19:02 -7.2 °C -12.9 °C 34097 hPa WNW 32.8 km/h 32.8 km/h 51 % 0 mm 394.0 W/m2 CLR
19:07 -6.9 °C -12.9 °C 34097 hPa WSW 29.8 km/h 29.8 km/h 50 % 0 mm 95.0 W/m2 CLR
19:12 -6.9 °C -13.6 °C 34107.2 hPa NW 50.7 km/h 50.7 km/h 46 % 0 mm 54.0 W/m2 CLR
19:13 -6.9 °C -13.7 °C 34120.7 hPa NNW 53.6 km/h 53.6 km/h 45 % 0 mm 35.0 W/m2 CLR
19:18 -7.7 °C -12.8 °C 34130.9 hPa NNW 59.5 km/h 59.5 km/h 55 % 0 mm 42.0 W/m2 SCT
19:23 -8.7 °C -12.7 °C 34154.6 hPa NNW 74.5 km/h 74.5 km/h 62 % 0 mm 39.0 W/m2 BKN
19:28 -9.5 °C -12.8 °C 34164.7 hPa NW 68.6 km/h 68.6 km/h 67 % 0 mm 49.0 W/m2 BKN
19:33 -9.9 °C -12.7 °C 34188.4 hPa North 77.4 km/h 77.4 km/h 72 % 0 mm 33.0 W/m2 BKN
19:38 -10.4 °C -12.8 °C 34188.4 hPa NNW 53.6 km/h 53.6 km/h 75 % 0 mm 42.0 W/m2 BKN
19:43 -10.7 °C -12.7 °C 34188.4 hPa North 47.6 km/h 47.6 km/h 79 % 0 mm 42.0 W/m2 BKN
19:48 -10.9 °C -12.8 °C 34188.4 hPa NNW 59.5 km/h 59.5 km/h 80 % 7.62 mm 40.0 W/m2 RA
19:53 -11.2 °C -12.8 °C 34212.1 hPa NNW 56.6 km/h 56.6 km/h 82 % 7.62 mm 14.0 W/m2 BKN
19:58 -11.3 °C -12.8 °C 34212.1 hPa NW 32.8 km/h 32.8 km/h 83 % 7.62 mm 11.0 W/m2 BKN
20:03 -11.3 °C -12.7 °C 34212.1 hPa WNW 35.7 km/h 35.7 km/h 85 % 12.7 mm 12.0 W/m2 RA
20:08 -11.4 °C -12.7 °C 34222.3 hPa NW 38.8 km/h 38.8 km/h 85 % 12.7 mm 7.0 W/m2 RA
20:13 -11.4 °C -12.7 °C 34222.3 hPa NW 35.7 km/h 35.7 km/h 86 % 12.7 mm 7.0 W/m2 BKN
20:18 -11.5 °C -12.7 °C 34222.3 hPa NNW 29.8 km/h 29.8 km/h 86 % 12.7 mm 12.0 W/m2 BKN
20:23 -11.5 °C -12.7 °C 34235.8 hPa WNW 29.8 km/h 29.8 km/h 87 % 20.32 mm 9.0 W/m2 RA
20:28 -11.6 °C -12.7 °C 34235.8 hPa NW 23.3 km/h 23.3 km/h 87 % 25.4 mm 14.0 W/m2 RA
20:34 -11.6 °C -12.7 °C 34235.8 hPa WNW 26.9 km/h 26.9 km/h 88 % 33.02 mm 7.0 W/m2 RA
20:38 -11.7 °C -12.7 °C 34246 hPa WNW 23.8 km/h 23.8 km/h 88 % 33.02 mm 5.0 W/m2 CLR
20:39 -11.7 °C -12.7 °C 34246 hPa WNW 26.9 km/h 26.9 km/h 88 % 33.02 mm 5.0 W/m2 CLR
20:44 -11.7 °C -12.8 °C 34246 hPa West 20.9 km/h 20.9 km/h 88 % 38.1 mm 5.0 W/m2 RA
20:49 -11.7 °C -12.7 °C 34235.8 hPa WSW 23.8 km/h 23.8 km/h 88 % 33.02 mm 5.0 W/m2 CLR
20:54 -11.7 °C -12.7 °C 34246 hPa West 32.8 km/h 32.8 km/h 88 % 33.02 mm 0.0 W/m2 OVC
20:59 -11.7 °C -12.8 °C 34246 hPa WSW 11.9 km/h 11.9 km/h 87 % 33.02 mm 0.0 W/m2 OVC
21:04 -11.7 °C -12.8 °C 34246 hPa SW 23.8 km/h 23.8 km/h 87 % 25.4 mm 0.0 W/m2 CLR
21:09 -11.7 °C -12.7 °C 34246 hPa WSW 23.8 km/h 23.8 km/h 88 % 20.32 mm 0.0 W/m2 CLR
21:14 -11.7 °C -12.8 °C 34246 hPa WSW 26.9 km/h 26.9 km/h 88 % 20.32 mm 0.0 W/m2 CLR
21:19 -11.8 °C -12.8 °C 34246 hPa WSW 29.8 km/h 29.8 km/h 88 % 20.32 mm 0.0 W/m2 CLR
21:24 -11.8 °C -12.8 °C 34246 hPa WSW 26.9 km/h 26.9 km/h 88 % 12.7 mm 0.0 W/m2 CLR
21:29 -11.8 °C -12.8 °C 34246 hPa WSW 26.9 km/h 26.9 km/h 88 % 12.7 mm 0.0 W/m2 CLR
21:34 -11.8 °C -12.8 °C 34246 hPa WSW 23.8 km/h 23.8 km/h 88 % 7.62 mm 0.0 W/m2 CLR
21:39 -11.8 °C -12.8 °C 34246 hPa WSW 29.8 km/h 29.8 km/h 88 % 7.62 mm 0.0 W/m2 CLR
21:40 -11.7 °C -12.8 °C 34246 hPa WSW 29.8 km/h 29.8 km/h 88 % 7.62 mm 0.0 W/m2 CLR
21:45 -11.7 °C -12.8 °C 34256.2 hPa WSW 29.8 km/h 29.8 km/h 87 % 0 mm 0.0 W/m2 CLR
21:50 -11.6 °C -12.9 °C 34256.2 hPa WSW 29.8 km/h 29.8 km/h 86 % 0 mm 0.0 W/m2 CLR
21:55 -11.6 °C -12.8 °C 34269.7 hPa SW 26.9 km/h 26.9 km/h 86 % 0 mm 0.0 W/m2 CLR
22:00 -11.6 °C -12.8 °C 34269.7 hPa WSW 26.9 km/h 26.9 km/h 86 % 0 mm 0.0 W/m2 CLR
22:05 -11.6 °C -12.8 °C 34269.7 hPa WSW 23.8 km/h 23.8 km/h 86 % 0 mm 0.0 W/m2 CLR
22:10 -11.6 °C -12.8 °C 34256.2 hPa SSW 17.9 km/h 17.9 km/h 86 % 0 mm 0.0 W/m2 CLR
22:15 -11.6 °C -12.8 °C 34269.7 hPa West 20.9 km/h 20.9 km/h 86 % 0 mm 0.0 W/m2 CLR
22:20 -11.6 °C -12.9 °C 34269.7 hPa WSW 6 km/h   86 % 0 mm 0.0 W/m2 CLR
22:25 -11.6 °C -12.9 °C 34269.7 hPa WSW 15 km/h 15 km/h 85 % 0 mm 0.0 W/m2 CLR
22:30 -11.6 °C -13 °C 34269.7 hPa West 6 km/h   84 % 0 mm 0.0 W/m2 CLR
22:35 -11.5 °C -13.2 °C 34269.7 hPa West 20.8 km/h 20.8 km/h 82 % 0 mm 0.0 W/m2 CLR
22:40 -11.4 °C -13.4 °C 34279.9 hPa West 20.9 km/h 20.9 km/h 79 % 0 mm 0.0 W/m2 CLR
22:45 -11.3 °C -13.5 °C 34279.9 hPa WNW 29.8 km/h 29.8 km/h 77 % 0 mm 0.0 W/m2 CLR
22:50 -11.3 °C -13.4 °C 34279.9 hPa West 23.8 km/h 23.8 km/h 77 % 0 mm 0.0 W/m2 CLR
22:55 -11.3 °C -13.4 °C 34293.4 hPa WNW 11.9 km/h 11.9 km/h 77 % 0 mm 0.0 W/m2 CLR
23:00 -11.3 °C -13.4 °C 34293.4 hPa WNW 17.9 km/h 17.9 km/h 78 % 0 mm 0.0 W/m2 CLR
23:01 -11.3 °C -13.4 °C 34293.4 hPa WNW 17.9 km/h 17.9 km/h 78 % 0 mm 0.0 W/m2 CLR
23:06 -11.3 °C -13.4 °C 34293.4 hPa Calm     78 % 0 mm 0.0 W/m2 CLR
23:10 -11.4 °C -13.4 °C 34303.6 hPa Calm     79 % 0 mm 0.0 W/m2 CLR
23:16 -11.5 °C -13.3 °C 34303.6 hPa Calm     80 % 0 mm 0.0 W/m2 CLR
23:21 -11.5 °C -13.4 °C 34303.6 hPa Calm     80 % 0 mm 0.0 W/m2 CLR
23:26 -11.6 °C -13.4 °C 34303.6 hPa Calm     80 % 0 mm 0.0 W/m2 CLR
23:31 -11.6 °C -13.4 °C 34303.6 hPa Calm     80 % 0 mm 0.0 W/m2 CLR
23:36 -11.6 °C -13.3 °C 34303.6 hPa Calm     81 % 0 mm 0.0 W/m2 CLR
23:41 -11.6 °C -13.3 °C 34303.6 hPa Calm     81 % 0 mm 0.0 W/m2 CLR
23:46 -11.6 °C -13.4 °C 34303.6 hPa Calm     80 % 0 mm 0.0 W/m2 CLR
23:51 -11.5 °C -13.4 °C 34303.6 hPa Calm     79 % 0 mm 0.0 W/m2 CLR
23:56 -11.4 °C -13.4 °C 34303.6 hPa Calm     79 % 0 mm 0.0 W/m2 CLR
Lo Temps de Massalio
Compliments of Weather Underground - 1.25 mb